createdAt,value
2023-03-29T00:04:36.864Z,3.73
2023-03-29T00:14:40.078Z,3.30
2023-03-29T00:24:47.685Z,3.80
2023-03-29T00:34:50.976Z,3.40
2023-03-29T00:45:05.336Z,3.50
2023-03-29T00:55:13.217Z,3.00
2023-03-29T01:05:22.809Z,2.80
2023-03-29T01:15:29.789Z,2.90
2023-03-29T01:25:41.301Z,2.80
2023-03-29T01:35:50.141Z,3.17
2023-03-29T01:46:02.026Z,3.20
2023-03-29T01:56:12.658Z,2.60
2023-03-29T02:06:20.581Z,1.80
2023-03-29T02:16:25.494Z,1.50
2023-03-29T02:26:29.241Z,1.40
2023-03-29T02:36:41.542Z,1.30
2023-03-29T02:46:45.441Z,1.10
2023-03-29T02:56:51.576Z,1.30
2023-03-29T03:06:54.904Z,1.30
2023-03-29T03:17:00.650Z,1.10
2023-03-29T03:27:05.288Z,1.33
2023-03-29T03:37:11.929Z,1.40
2023-03-29T03:47:15.614Z,1.30
2023-03-29T03:57:21.073Z,1.30
2023-03-29T04:07:27.645Z,1.50
2023-03-29T04:17:32.288Z,1.20
2023-03-29T04:27:54.208Z,1.50
2023-03-29T04:38:31.025Z,1.43
2023-03-29T04:48:36.622Z,1.20
2023-03-29T04:58:42.259Z,1.23
2023-03-29T05:08:46.146Z,1.53
2023-03-29T05:18:58.787Z,1.30
2023-03-29T05:29:02.655Z,1.60
2023-03-29T05:39:07.453Z,1.20
2023-03-29T05:49:12.273Z,1.57
2023-03-29T05:59:35.541Z,1.43
2023-03-29T06:09:40.486Z,1.70
2023-03-29T06:19:46.242Z,1.77
2023-03-29T06:29:50.525Z,1.80
2023-03-29T06:39:55.577Z,1.97
2023-03-29T06:50:04.375Z,2.43
2023-03-29T07:00:18.256Z,2.43
2023-03-29T07:10:45.724Z,1.90
2023-03-29T07:21:10.589Z,2.00
2023-03-29T07:31:15.591Z,1.87
2023-03-29T07:41:24.540Z,2.30
2023-03-29T07:51:36.614Z,2.93
2023-03-29T08:01:45.990Z,2.50
2023-03-29T08:12:07.880Z,2.10
2023-03-29T08:22:15.610Z,1.92
2023-03-29T08:32:39.698Z,2.08
2023-03-29T08:43:09.554Z,1.60
2023-03-29T08:53:36.523Z,1.70
2023-03-29T09:04:10.698Z,1.85
2023-03-29T09:15:06.698Z,1.73
2023-03-29T09:25:21.304Z,2.03
2023-03-29T09:35:29.082Z,1.73
2023-03-29T09:45:38.492Z,1.40
2023-03-29T09:55:42.192Z,1.48
2023-03-29T10:06:01.605Z,1.42
2023-03-29T10:16:07.953Z,1.98
2023-03-29T10:26:21.295Z,1.73
2023-03-29T10:36:27.050Z,2.20
2023-03-29T10:46:33.645Z,1.58
2023-03-29T10:56:41.348Z,1.52
2023-03-29T11:06:56.015Z,1.35
2023-03-29T11:17:11.596Z,1.40
2023-03-29T11:27:25.566Z,1.58
2023-03-29T11:37:38.318Z,1.55
2023-03-29T11:47:45.561Z,1.80
2023-03-29T11:57:53.823Z,1.40
2023-03-29T12:08:04.807Z,1.23
2023-03-29T12:18:17.261Z,1.85
2023-03-29T12:28:52.096Z,1.70
2023-03-29T12:38:55.331Z,1.70
2023-03-29T12:49:27.979Z,2.08
2023-03-29T12:59:39.815Z,2.00
2023-03-29T13:09:51.876Z,1.90
2023-03-29T13:20:14.033Z,2.20
2023-03-29T13:30:26.231Z,1.85
2023-03-29T13:40:34.899Z,2.13
2023-03-29T13:50:41.465Z,1.88
2023-03-29T14:00:50.987Z,1.83
2023-03-29T14:10:56.254Z,1.92
2023-03-29T14:21:01.965Z,2.00
2023-03-29T14:31:07.867Z,1.98
2023-03-29T14:41:11.170Z,2.00
2023-03-29T14:51:16.301Z,1.63
2023-03-29T15:01:22.155Z,1.75
2023-03-29T15:11:28.582Z,1.70
2023-03-29T15:21:34.015Z,1.83
2023-03-29T15:31:41.247Z,1.50
2023-03-29T15:41:46.116Z,1.50
2023-03-29T15:51:52.726Z,1.88
2023-03-29T16:01:57.527Z,1.70
2023-03-29T16:12:02.097Z,2.10
2023-03-29T16:22:07.439Z,2.05
2023-03-29T16:32:12.710Z,2.10
2023-03-29T16:42:16.076Z,2.17
2023-03-29T16:52:21.182Z,3.05
2023-03-29T17:02:24.483Z,2.00
2023-03-29T17:12:29.322Z,2.40
2023-03-29T17:22:32.646Z,2.47
2023-03-29T17:32:37.307Z,2.35
2023-03-29T17:42:40.601Z,2.70
2023-03-29T17:52:45.629Z,2.95
2023-03-29T18:02:48.989Z,2.97
2023-03-29T18:12:54.739Z,2.58
2023-03-29T18:22:57.944Z,3.58
2023-03-29T18:33:02.587Z,2.70
2023-03-29T18:43:05.901Z,2.45
2023-03-29T18:53:10.581Z,2.30
2023-03-29T19:03:14.091Z,2.63
2023-03-29T19:13:19.031Z,2.90
2023-03-29T19:23:22.595Z,2.83
2023-03-29T19:33:27.196Z,3.22
2023-03-29T19:43:31.680Z,3.22
2023-03-29T19:53:38.729Z,3.92
2023-03-29T20:03:43.833Z,3.42
2023-03-29T20:13:48.986Z,3.75
2023-03-29T20:23:53.314Z,2.80
2023-03-29T20:33:57.903Z,2.90
2023-03-29T20:44:02.935Z,2.80
2023-03-29T20:54:07.733Z,3.10
2023-03-29T21:04:11.186Z,3.08
2023-03-29T21:14:19.481Z,2.63
2023-03-29T21:24:23.241Z,3.58
2023-03-29T21:34:27.801Z,3.00
2023-03-29T21:44:33.161Z,3.05
2023-03-29T21:54:39.004Z,2.70
2023-03-29T22:04:42.223Z,3.00
2023-03-29T22:14:46.876Z,3.20
2023-03-29T22:24:52.583Z,3.35
2023-03-29T22:34:57.232Z,3.63
2023-03-29T22:45:00.477Z,3.83
2023-03-29T22:55:05.580Z,3.05
2023-03-29T23:05:09.655Z,3.13
2023-03-29T23:15:14.707Z,2.83
2023-03-29T23:25:17.942Z,3.35
2023-03-29T23:35:22.644Z,3.03
2023-03-29T23:45:27.557Z,4.55
2023-03-29T23:55:32.175Z,4.15
